sensor_id;sensor_type;location;lat;lon;timestamp;temperature;humidity
21622;DHT22;10973;46.706;12.340;2022-07-18T00:01:25;16.90;99.90
21622;DHT22;10973;46.706;12.340;2022-07-18T00:03:52;17.00;99.90
21622;DHT22;10973;46.706;12.340;2022-07-18T00:06:20;16.90;99.90
21622;DHT22;10973;46.706;12.340;2022-07-18T00:08:47;16.90;99.90
21622;DHT22;10973;46.706;12.340;2022-07-18T00:11:15;16.80;99.90
21622;DHT22;10973;46.706;12.340;2022-07-18T00:13:42;16.80;99.90
21622;DHT22;10973;46.706;12.340;2022-07-18T00:16:09;16.70;99.90
21622;DHT22;10973;46.706;12.340;2022-07-18T00:18:37;16.80;99.90
21622;DHT22;10973;46.706;12.340;2022-07-18T00:21:04;16.70;99.90
21622;DHT22;10973;46.706;12.340;2022-07-18T00:23:31;16.70;99.90
21622;DHT22;10973;46.706;12.340;2022-07-18T00:25:59;16.60;99.90
21622;DHT22;10973;46.706;12.340;2022-07-18T00:28:26;16.60;99.90
21622;DHT22;10973;46.706;12.340;2022-07-18T00:30:54;16.70;99.90
21622;DHT22;10973;46.706;12.340;2022-07-18T00:33:21;16.70;99.90
21622;DHT22;10973;46.706;12.340;2022-07-18T00:39:48;16.60;99.90
21622;DHT22;10973;46.706;12.340;2022-07-18T00:42:16;16.50;99.90
21622;DHT22;10973;46.706;12.340;2022-07-18T00:44:43;16.40;99.90
21622;DHT22;10973;46.706;12.340;2022-07-18T00:47:10;16.60;99.90
21622;DHT22;10973;46.706;12.340;2022-07-18T00:49:38;16.50;99.90
21622;DHT22;10973;46.706;12.340;2022-07-18T00:52:05;16.50;99.90
21622;DHT22;10973;46.706;12.340;2022-07-18T00:54:33;16.40;99.90
21622;DHT22;10973;46.706;12.340;2022-07-18T00:57:00;16.40;99.90
21622;DHT22;10973;46.706;12.340;2022-07-18T00:59:28;16.30;99.90
21622;DHT22;10973;46.706;12.340;2022-07-18T01:01:56;16.30;99.90
21622;DHT22;10973;46.706;12.340;2022-07-18T01:04:23;16.30;99.90
21622;DHT22;10973;46.706;12.340;2022-07-18T01:06:51;16.10;99.90
21622;DHT22;10973;46.706;12.340;2022-07-18T01:09:19;16.10;99.90
21622;DHT22;10973;46.706;12.340;2022-07-18T01:11:47;16.20;99.90
21622;DHT22;10973;46.706;12.340;2022-07-18T01:14:15;16.10;99.90
21622;DHT22;10973;46.706;12.340;2022-07-18T01:16:43;16.10;99.90
21622;DHT22;10973;46.706;12.340;2022-07-18T01:19:11;16.10;99.90
21622;DHT22;10973;46.706;12.340;2022-07-18T01:21:38;16.00;99.90
21622;DHT22;10973;46.706;12.340;2022-07-18T01:24:06;16.00;99.90
21622;DHT22;10973;46.706;12.340;2022-07-18T01:26:34;16.00;99.90
21622;DHT22;10973;46.706;12.340;2022-07-18T01:29:01;16.00;99.90
21622;DHT22;10973;46.706;12.340;2022-07-18T01:31:29;16.00;99.90
21622;DHT22;10973;46.706;12.340;2022-07-18T01:33:56;16.00;99.90
21622;DHT22;10973;46.706;12.340;2022-07-18T01:36:23;16.00;99.90
21622;DHT22;10973;46.706;12.340;2022-07-18T01:38:51;15.90;99.90
21622;DHT22;10973;46.706;12.340;2022-07-18T01:41:18;16.00;99.90
21622;DHT22;10973;46.706;12.340;2022-07-18T01:43:45;16.00;99.90
21622;DHT22;10973;46.706;12.340;2022-07-18T01:46:13;15.90;99.90
21622;DHT22;10973;46.706;12.340;2022-07-18T01:48:40;16.00;99.90
21622;DHT22;10973;46.706;12.340;2022-07-18T01:51:08;15.90;99.90
21622;DHT22;10973;46.706;12.340;2022-07-18T01:53:37;15.80;99.90
21622;DHT22;10973;46.706;12.340;2022-07-18T01:56:06;15.90;99.90
21622;DHT22;10973;46.706;12.340;2022-07-18T01:58:34;15.80;99.90
21622;DHT22;10973;46.706;12.340;2022-07-18T02:01:01;15.80;99.90
21622;DHT22;10973;46.706;12.340;2022-07-18T02:07:37;15.70;99.90
21622;DHT22;10973;46.706;12.340;2022-07-18T02:12:46;15.60;99.90
21622;DHT22;10973;46.706;12.340;2022-07-18T02:15:14;15.50;99.90
21622;DHT22;10973;46.706;12.340;2022-07-18T02:17:43;15.40;99.90
21622;DHT22;10973;46.706;12.340;2022-07-18T02:20:12;15.40;99.90
21622;DHT22;10973;46.706;12.340;2022-07-18T02:22:41;15.50;99.90
21622;DHT22;10973;46.706;12.340;2022-07-18T02:25:09;15.50;99.90
21622;DHT22;10973;46.706;12.340;2022-07-18T02:27:37;15.40;99.90
21622;DHT22;10973;46.706;12.340;2022-07-18T02:30:07;15.30;99.90
21622;DHT22;10973;46.706;12.340;2022-07-18T02:32:35;15.30;99.90
21622;DHT22;10973;46.706;12.340;2022-07-18T02:45:51;15.10;99.90
21622;DHT22;10973;46.706;12.340;2022-07-18T02:48:18;15.10;99.90
21622;DHT22;10973;46.706;12.340;2022-07-18T02:50:45;15.00;99.90
21622;DHT22;10973;46.706;12.340;2022-07-18T02:53:12;15.00;99.90
21622;DHT22;10973;46.706;12.340;2022-07-18T02:55:40;15.00;99.90
21622;DHT22;10973;46.706;12.340;2022-07-18T02:58:16;15.00;99.90
21622;DHT22;10973;46.706;12.340;2022-07-18T03:00:44;15.00;99.90
21622;DHT22;10973;46.706;12.340;2022-07-18T03:03:11;14.90;99.90
21622;DHT22;10973;46.706;12.340;2022-07-18T03:14:14;14.80;99.90
21622;DHT22;10973;46.706;12.340;2022-07-18T03:16:41;14.80;99.90
21622;DHT22;10973;46.706;12.340;2022-07-18T03:19:08;14.70;99.90
21622;DHT22;10973;46.706;12.340;2022-07-18T03:21:36;14.70;99.90
21622;DHT22;10973;46.706;12.340;2022-07-18T03:24:03;14.70;99.90
21622;DHT22;10973;46.706;12.340;2022-07-18T03:26:31;14.60;99.90
21622;DHT22;10973;46.706;12.340;2022-07-18T03:28:59;14.60;99.90
21622;DHT22;10973;46.706;12.340;2022-07-18T03:31:37;14.60;99.90
21622;DHT22;10973;46.706;12.340;2022-07-18T03:34:05;14.60;99.90
21622;DHT22;10973;46.706;12.340;2022-07-18T03:41:07;14.60;99.90
21622;DHT22;10973;46.706;12.340;2022-07-18T03:47:43;14.40;99.90
21622;DHT22;10973;46.706;12.340;2022-07-18T03:50:10;14.30;99.90
21622;DHT22;10973;46.706;12.340;2022-07-18T03:52:38;14.50;99.90
21622;DHT22;10973;46.706;12.340;2022-07-18T03:55:06;14.40;99.90
21622;DHT22;10973;46.706;12.340;2022-07-18T04:00:39;14.30;99.90
21622;DHT22;10973;46.706;12.340;2022-07-18T04:03:07;14.20;99.90
21622;DHT22;10973;46.706;12.340;2022-07-18T04:09:44;14.30;99.90
21622;DHT22;10973;46.706;12.340;2022-07-18T04:12:11;14.20;99.90
21622;DHT22;10973;46.706;12.340;2022-07-18T04:14:38;14.20;99.90
21622;DHT22;10973;46.706;12.340;2022-07-18T04:25:27;14.10;99.90
21622;DHT22;10973;46.706;12.340;2022-07-18T04:27:56;14.10;99.90
21622;DHT22;10973;46.706;12.340;2022-07-18T04:30:25;14.10;99.90
21622;DHT22;10973;46.706;12.340;2022-07-18T04:37:03;14.20;99.90
21622;DHT22;10973;46.706;12.340;2022-07-18T04:43:40;14.10;99.90
21622;DHT22;10973;46.706;12.340;2022-07-18T04:46:07;14.30;99.90
21622;DHT22;10973;46.706;12.340;2022-07-18T04:48:34;14.30;99.90
21622;DHT22;10973;46.706;12.340;2022-07-18T04:51:02;14.30;99.90
21622;DHT22;10973;46.706;12.340;2022-07-18T04:53:29;14.20;99.90
21622;DHT22;10973;46.706;12.340;2022-07-18T04:55:57;14.30;99.90
21622;DHT22;10973;46.706;12.340;2022-07-18T05:02:34;14.40;99.90
21622;DHT22;10973;46.706;12.340;2022-07-18T05:05:01;14.40;99.90
21622;DHT22;10973;46.706;12.340;2022-07-18T05:11:39;14.40;99.90
21622;DHT22;10973;46.706;12.340;2022-07-18T05:14:06;14.40;99.90
21622;DHT22;10973;46.706;12.340;2022-07-18T05:28:06;14.50;99.90
21622;DHT22;10973;46.706;12.340;2022-07-18T05:34:33;14.60;99.90
21622;DHT22;10973;46.706;12.340;2022-07-18T05:37:01;14.60;99.90
21622;DHT22;10973;46.706;12.340;2022-07-18T05:39:28;14.70;99.90
21622;DHT22;10973;46.706;12.340;2022-07-18T05:41:56;14.80;99.90
21622;DHT22;10973;46.706;12.340;2022-07-18T05:44:23;14.80;99.90
21622;DHT22;10973;46.706;12.340;2022-07-18T05:46:50;14.90;99.90
21622;DHT22;10973;46.706;12.340;2022-07-18T05:53:19;15.00;99.90
21622;DHT22;10973;46.706;12.340;2022-07-18T05:55:46;15.20;99.90
21622;DHT22;10973;46.706;12.340;2022-07-18T06:02:27;15.40;99.90
21622;DHT22;10973;46.706;12.340;2022-07-18T06:04:54;15.50;99.90
21622;DHT22;10973;46.706;12.340;2022-07-18T06:07:41;15.60;99.90
21622;DHT22;10973;46.706;12.340;2022-07-18T06:10:09;15.70;99.90
21622;DHT22;10973;46.706;12.340;2022-07-18T06:12:37;15.80;99.90
21622;DHT22;10973;46.706;12.340;2022-07-18T06:15:05;16.00;99.90
21622;DHT22;10973;46.706;12.340;2022-07-18T06:17:35;16.10;99.90
21622;DHT22;10973;46.706;12.340;2022-07-18T06:20:04;16.10;99.90
21622;DHT22;10973;46.706;12.340;2022-07-18T06:22:32;16.20;99.90
21622;DHT22;10973;46.706;12.340;2022-07-18T06:24:59;16.30;99.90
21622;DHT22;10973;46.706;12.340;2022-07-18T06:31:27;16.40;99.90
21622;DHT22;10973;46.706;12.340;2022-07-18T06:33:54;16.50;99.90
21622;DHT22;10973;46.706;12.340;2022-07-18T06:39:52;16.60;99.90
21622;DHT22;10973;46.706;12.340;2022-07-18T06:42:20;16.70;99.90
21622;DHT22;10973;46.706;12.340;2022-07-18T06:44:47;16.70;99.90
21622;DHT22;10973;46.706;12.340;2022-07-18T06:47:14;16.80;99.90
21622;DHT22;10973;46.706;12.340;2022-07-18T06:49:42;16.90;99.90
21622;DHT22;10973;46.706;12.340;2022-07-18T06:52:29;16.90;99.90
21622;DHT22;10973;46.706;12.340;2022-07-18T06:54:56;17.00;99.90
21622;DHT22;10973;46.706;12.340;2022-07-18T06:57:25;17.10;99.90
21622;DHT22;10973;46.706;12.340;2022-07-18T06:59:52;17.20;99.90
21622;DHT22;10973;46.706;12.340;2022-07-18T07:05:54;17.40;99.90
21622;DHT22;10973;46.706;12.340;2022-07-18T07:24:42;17.80;99.90
21622;DHT22;10973;46.706;12.340;2022-07-18T07:27:09;17.90;99.90
21622;DHT22;10973;46.706;12.340;2022-07-18T07:29:36;18.00;99.90
21622;DHT22;10973;46.706;12.340;2022-07-18T07:32:04;18.00;99.90
21622;DHT22;10973;46.706;12.340;2022-07-18T07:38:31;18.20;99.90
21622;DHT22;10973;46.706;12.340;2022-07-18T07:40:58;18.30;99.90
21622;DHT22;10973;46.706;12.340;2022-07-18T07:43:26;18.30;99.90
21622;DHT22;10973;46.706;12.340;2022-07-18T07:45:53;18.40;99.90
21622;DHT22;10973;46.706;12.340;2022-07-18T07:48:20;18.40;99.90
21622;DHT22;10973;46.706;12.340;2022-07-18T07:50:48;18.50;99.90
21622;DHT22;10973;46.706;12.340;2022-07-18T07:57:25;18.50;99.90
21622;DHT22;10973;46.706;12.340;2022-07-18T08:00:00;18.60;99.90
21622;DHT22;10973;46.706;12.340;2022-07-18T08:06:37;18.70;99.90
21622;DHT22;10973;46.706;12.340;2022-07-18T08:09:04;18.80;99.90
21622;DHT22;10973;46.706;12.340;2022-07-18T08:11:32;18.90;99.90
21622;DHT22;10973;46.706;12.340;2022-07-18T08:22:15;19.20;99.90
21622;DHT22;10973;46.706;12.340;2022-07-18T08:24:42;19.20;99.90
21622;DHT22;10973;46.706;12.340;2022-07-18T08:27:10;19.30;99.90
21622;DHT22;10973;46.706;12.340;2022-07-18T08:29:38;19.30;99.90
21622;DHT22;10973;46.706;12.340;2022-07-18T08:36:35;19.50;99.90
21622;DHT22;10973;46.706;12.340;2022-07-18T08:39:05;19.50;99.90
21622;DHT22;10973;46.706;12.340;2022-07-18T08:41:33;19.60;99.90
21622;DHT22;10973;46.706;12.340;2022-07-18T08:44:02;19.60;99.90
21622;DHT22;10973;46.706;12.340;2022-07-18T08:46:32;19.70;99.90
21622;DHT22;10973;46.706;12.340;2022-07-18T08:53:13;19.90;99.90
21622;DHT22;10973;46.706;12.340;2022-07-18T08:55:42;19.90;99.90
21622;DHT22;10973;46.706;12.340;2022-07-18T09:02:12;19.90;99.90
21622;DHT22;10973;46.706;12.340;2022-07-18T09:08:56;20.30;99.90
21622;DHT22;10973;46.706;12.340;2022-07-18T09:11:25;20.40;99.90
21622;DHT22;10973;46.706;12.340;2022-07-18T09:17:21;20.60;99.90
21622;DHT22;10973;46.706;12.340;2022-07-18T09:26:43;20.80;99.90
21622;DHT22;10973;46.706;12.340;2022-07-18T09:29:17;20.80;99.90
21622;DHT22;10973;46.706;12.340;2022-07-18T09:31:55;20.80;99.90
21622;DHT22;10973;46.706;12.340;2022-07-18T09:38:29;21.10;99.90
21622;DHT22;10973;46.706;12.340;2022-07-18T09:40:56;21.20;98.30
21622;DHT22;10973;46.706;12.340;2022-07-18T09:43:25;21.20;99.00
21622;DHT22;10973;46.706;12.340;2022-07-18T09:45:55;21.20;98.60
21622;DHT22;10973;46.706;12.340;2022-07-18T09:48:25;21.20;97.90
21622;DHT22;10973;46.706;12.340;2022-07-18T09:51:07;21.30;97.60
21622;DHT22;10973;46.706;12.340;2022-07-18T09:53:43;21.30;97.60
21622;DHT22;10973;46.706;12.340;2022-07-18T09:56:23;21.50;96.40
21622;DHT22;10973;46.706;12.340;2022-07-18T09:58:53;21.60;94.20
21622;DHT22;10973;46.706;12.340;2022-07-18T10:01:22;21.50;93.10
21622;DHT22;10973;46.706;12.340;2022-07-18T10:03:51;21.70;92.90
21622;DHT22;10973;46.706;12.340;2022-07-18T10:06:19;21.80;92.10
21622;DHT22;10973;46.706;12.340;2022-07-18T10:08:46;21.90;92.00
21622;DHT22;10973;46.706;12.340;2022-07-18T10:11:14;21.90;91.10
21622;DHT22;10973;46.706;12.340;2022-07-18T10:13:41;22.00;91.60
21622;DHT22;10973;46.706;12.340;2022-07-18T10:16:10;22.10;88.80
21622;DHT22;10973;46.706;12.340;2022-07-18T10:18:37;22.30;86.40
21622;DHT22;10973;46.706;12.340;2022-07-18T10:21:10;22.40;83.00
21622;DHT22;10973;46.706;12.340;2022-07-18T10:23:44;22.40;84.80
21622;DHT22;10973;46.706;12.340;2022-07-18T10:26:22;22.40;84.60
21622;DHT22;10973;46.706;12.340;2022-07-18T10:31:34;22.60;82.40
21622;DHT22;10973;46.706;12.340;2022-07-18T10:39:19;22.80;84.20
21622;DHT22;10973;46.706;12.340;2022-07-18T11:01:30;24.00;79.10
21622;DHT22;10973;46.706;12.340;2022-07-18T11:04:32;24.10;79.80
21622;DHT22;10973;46.706;12.340;2022-07-18T11:07:15;24.10;81.10
21622;DHT22;10973;46.706;12.340;2022-07-18T11:13:44;24.40;78.90
21622;DHT22;10973;46.706;12.340;2022-07-18T11:16:14;24.60;74.50
21622;DHT22;10973;46.706;12.340;2022-07-18T11:22:54;24.80;73.40
21622;DHT22;10973;46.706;12.340;2022-07-18T11:25:28;24.80;70.50
21622;DHT22;10973;46.706;12.340;2022-07-18T11:30:45;25.50;86.30
21622;DHT22;10973;46.706;12.340;2022-07-18T11:33:27;25.50;93.90
21622;DHT22;10973;46.706;12.340;2022-07-18T11:42:38;26.20;71.40
21622;DHT22;10973;46.706;12.340;2022-07-18T11:49:06;26.60;68.80
21622;DHT22;10973;46.706;12.340;2022-07-18T11:51:41;26.80;66.40
21622;DHT22;10973;46.706;12.340;2022-07-18T11:54:22;26.80;68.00
21622;DHT22;10973;46.706;12.340;2022-07-18T11:56:53;26.80;66.20
21622;DHT22;10973;46.706;12.340;2022-07-18T11:59:21;26.90;61.90
21622;DHT22;10973;46.706;12.340;2022-07-18T12:01:50;27.00;62.70
21622;DHT22;10973;46.706;12.340;2022-07-18T12:04:19;27.10;65.00
21622;DHT22;10973;46.706;12.340;2022-07-18T12:10:16;27.40;61.10
21622;DHT22;10973;46.706;12.340;2022-07-18T12:16:57;27.80;62.80
21622;DHT22;10973;46.706;12.340;2022-07-18T12:19:34;28.20;65.80
21622;DHT22;10973;46.706;12.340;2022-07-18T12:26:05;28.50;62.90
21622;DHT22;10973;46.706;12.340;2022-07-18T12:28:32;28.80;57.90
21622;DHT22;10973;46.706;12.340;2022-07-18T12:31:00;28.40;58.00
21622;DHT22;10973;46.706;12.340;2022-07-18T12:33:27;28.30;57.20
21622;DHT22;10973;46.706;12.340;2022-07-18T12:35:57;28.40;59.00
21622;DHT22;10973;46.706;12.340;2022-07-18T12:42:39;27.80;63.40
21622;DHT22;10973;46.706;12.340;2022-07-18T12:45:11;27.40;73.40
21622;DHT22;10973;46.706;12.340;2022-07-18T12:47:39;27.40;76.50
21622;DHT22;10973;46.706;12.340;2022-07-18T12:50:08;27.60;76.80
21622;DHT22;10973;46.706;12.340;2022-07-18T12:52:41;27.20;77.00
21622;DHT22;10973;46.706;12.340;2022-07-18T12:55:08;27.00;77.90
21622;DHT22;10973;46.706;12.340;2022-07-18T13:01:35;26.60;80.70
21622;DHT22;10973;46.706;12.340;2022-07-18T13:04:25;26.50;81.40
21622;DHT22;10973;46.706;12.340;2022-07-18T13:06:53;26.80;80.80
21622;DHT22;10973;46.706;12.340;2022-07-18T13:09:20;26.70;80.60
21622;DHT22;10973;46.706;12.340;2022-07-18T13:15:57;26.20;82.30
21622;DHT22;10973;46.706;12.340;2022-07-18T13:18:24;26.20;82.40
21622;DHT22;10973;46.706;12.340;2022-07-18T13:20:52;26.20;83.20
21622;DHT22;10973;46.706;12.340;2022-07-18T13:27:29;26.50;85.00
21622;DHT22;10973;46.706;12.340;2022-07-18T13:29:56;26.90;83.30
21622;DHT22;10973;46.706;12.340;2022-07-18T13:32:23;27.30;82.40
21622;DHT22;10973;46.706;12.340;2022-07-18T13:34:50;27.60;83.00
21622;DHT22;10973;46.706;12.340;2022-07-18T13:37:18;27.80;81.80
21622;DHT22;10973;46.706;12.340;2022-07-18T13:39:45;28.00;81.40
21622;DHT22;10973;46.706;12.340;2022-07-18T13:42:12;28.10;80.30
21622;DHT22;10973;46.706;12.340;2022-07-18T13:44:42;28.20;80.10
21622;DHT22;10973;46.706;12.340;2022-07-18T13:55:11;28.70;84.40
21622;DHT22;10973;46.706;12.340;2022-07-18T14:00:40;28.80;78.20
21622;DHT22;10973;46.706;12.340;2022-07-18T14:03:08;28.80;77.70
21622;DHT22;10973;46.706;12.340;2022-07-18T14:05:35;28.90;77.50
21622;DHT22;10973;46.706;12.340;2022-07-18T14:12:12;29.00;76.50
21622;DHT22;10973;46.706;12.340;2022-07-18T14:14:39;29.00;76.60
21622;DHT22;10973;46.706;12.340;2022-07-18T14:17:07;29.10;76.60
21622;DHT22;10973;46.706;12.340;2022-07-18T14:19:34;29.30;76.50
21622;DHT22;10973;46.706;12.340;2022-07-18T14:26:11;29.40;75.40
21622;DHT22;10973;46.706;12.340;2022-07-18T14:28:38;29.60;75.60
21622;DHT22;10973;46.706;12.340;2022-07-18T14:31:05;29.60;74.90
21622;DHT22;10973;46.706;12.340;2022-07-18T14:33:33;29.60;75.00
21622;DHT22;10973;46.706;12.340;2022-07-18T14:36:00;29.70;74.90
21622;DHT22;10973;46.706;12.340;2022-07-18T14:38:27;29.90;74.80
21622;DHT22;10973;46.706;12.340;2022-07-18T14:40:55;30.00;73.90
21622;DHT22;10973;46.706;12.340;2022-07-18T14:43:22;29.90;73.70
21622;DHT22;10973;46.706;12.340;2022-07-18T14:45:50;29.90;73.50
21622;DHT22;10973;46.706;12.340;2022-07-18T14:48:29;29.90;73.10
21622;DHT22;10973;46.706;12.340;2022-07-18T14:50:56;29.90;72.90
21622;DHT22;10973;46.706;12.340;2022-07-18T14:53:24;29.90;72.70
21622;DHT22;10973;46.706;12.340;2022-07-18T14:55:51;30.10;73.70
21622;DHT22;10973;46.706;12.340;2022-07-18T14:58:18;30.20;73.60
21622;DHT22;10973;46.706;12.340;2022-07-18T15:00:46;30.00;73.30
21622;DHT22;10973;46.706;12.340;2022-07-18T15:03:16;29.90;72.20
21622;DHT22;10973;46.706;12.340;2022-07-18T15:06:03;30.10;73.00
21622;DHT22;10973;46.706;12.340;2022-07-18T15:08:31;30.00;72.60
21622;DHT22;10973;46.706;12.340;2022-07-18T15:10:59;29.90;72.70
21622;DHT22;10973;46.706;12.340;2022-07-18T15:17:35;30.10;71.70
21622;DHT22;10973;46.706;12.340;2022-07-18T15:20:04;29.90;71.40
21622;DHT22;10973;46.706;12.340;2022-07-18T15:22:32;29.80;72.00
21622;DHT22;10973;46.706;12.340;2022-07-18T15:24:59;29.60;71.00
21622;DHT22;10973;46.706;12.340;2022-07-18T15:27:26;29.40;71.70
21622;DHT22;10973;46.706;12.340;2022-07-18T15:29:54;29.70;72.00
21622;DHT22;10973;46.706;12.340;2022-07-18T15:32:21;29.10;71.20
21622;DHT22;10973;46.706;12.340;2022-07-18T15:34:48;29.60;73.20
21622;DHT22;10973;46.706;12.340;2022-07-18T15:37:15;29.90;71.40
21622;DHT22;10973;46.706;12.340;2022-07-18T15:39:43;30.20;71.70
21622;DHT22;10973;46.706;12.340;2022-07-18T15:42:10;30.20;70.80
21622;DHT22;10973;46.706;12.340;2022-07-18T15:44:37;29.80;70.40
21622;DHT22;10973;46.706;12.340;2022-07-18T15:51:14;29.20;71.70
21622;DHT22;10973;46.706;12.340;2022-07-18T15:53:42;28.90;71.90
21622;DHT22;10973;46.706;12.340;2022-07-18T15:56:09;28.90;73.40
21622;DHT22;10973;46.706;12.340;2022-07-18T15:58:37;28.70;72.00
21622;DHT22;10973;46.706;12.340;2022-07-18T16:01:04;28.50;73.00
21622;DHT22;10973;46.706;12.340;2022-07-18T16:03:31;28.40;73.40
21622;DHT22;10973;46.706;12.340;2022-07-18T16:05:59;28.80;73.40
21622;DHT22;10973;46.706;12.340;2022-07-18T16:08:34;28.70;73.90
21622;DHT22;10973;46.706;12.340;2022-07-18T16:11:04;28.50;73.70
21622;DHT22;10973;46.706;12.340;2022-07-18T16:13:31;28.60;73.40
21622;DHT22;10973;46.706;12.340;2022-07-18T16:15:59;28.90;74.00
21622;DHT22;10973;46.706;12.340;2022-07-18T16:26:51;28.00;74.40
21622;DHT22;10973;46.706;12.340;2022-07-18T16:33:28;27.10;77.30
21622;DHT22;10973;46.706;12.340;2022-07-18T16:35:55;26.60;77.60
21622;DHT22;10973;46.706;12.340;2022-07-18T16:38:23;26.60;78.50
21622;DHT22;10973;46.706;12.340;2022-07-18T16:40:50;26.60;79.20
21622;DHT22;10973;46.706;12.340;2022-07-18T16:43:18;26.40;79.50
21622;DHT22;10973;46.706;12.340;2022-07-18T16:45:46;26.30;79.90
21622;DHT22;10973;46.706;12.340;2022-07-18T16:48:14;26.50;79.80
21622;DHT22;10973;46.706;12.340;2022-07-18T16:50:45;26.60;80.20
21622;DHT22;10973;46.706;12.340;2022-07-18T16:53:12;26.50;80.50
21622;DHT22;10973;46.706;12.340;2022-07-18T16:55:40;26.40;80.40
21622;DHT22;10973;46.706;12.340;2022-07-18T16:58:08;26.30;80.30
21622;DHT22;10973;46.706;12.340;2022-07-18T17:00:37;26.20;81.20
21622;DHT22;10973;46.706;12.340;2022-07-18T17:03:05;26.20;81.30
21622;DHT22;10973;46.706;12.340;2022-07-18T17:05:35;26.10;82.00
21622;DHT22;10973;46.706;12.340;2022-07-18T17:08:03;26.10;82.00
21622;DHT22;10973;46.706;12.340;2022-07-18T17:10:31;26.00;82.50
21622;DHT22;10973;46.706;12.340;2022-07-18T17:12:58;25.80;82.90
21622;DHT22;10973;46.706;12.340;2022-07-18T17:15:26;25.80;83.90
21622;DHT22;10973;46.706;12.340;2022-07-18T17:17:54;25.70;84.30
21622;DHT22;10973;46.706;12.340;2022-07-18T17:20:28;25.50;84.50
21622;DHT22;10973;46.706;12.340;2022-07-18T17:22:58;25.50;85.20
21622;DHT22;10973;46.706;12.340;2022-07-18T17:25:26;25.50;85.90
21622;DHT22;10973;46.706;12.340;2022-07-18T17:27:54;25.40;85.50
21622;DHT22;10973;46.706;12.340;2022-07-18T17:30:21;25.30;86.00
21622;DHT22;10973;46.706;12.340;2022-07-18T17:32:48;25.30;86.50
21622;DHT22;10973;46.706;12.340;2022-07-18T17:35:36;25.10;86.20
21622;DHT22;10973;46.706;12.340;2022-07-18T17:38:03;25.20;86.20
21622;DHT22;10973;46.706;12.340;2022-07-18T17:40:32;25.20;86.80
21622;DHT22;10973;46.706;12.340;2022-07-18T17:42:59;25.10;87.20
21622;DHT22;10973;46.706;12.340;2022-07-18T17:45:27;24.90;87.10
21622;DHT22;10973;46.706;12.340;2022-07-18T17:47:55;25.00;87.50
21622;DHT22;10973;46.706;12.340;2022-07-18T17:50:23;24.90;87.70
21622;DHT22;10973;46.706;12.340;2022-07-18T17:52:51;24.80;87.90
21622;DHT22;10973;46.706;12.340;2022-07-18T17:55:20;24.70;88.40
21622;DHT22;10973;46.706;12.340;2022-07-18T17:57:51;24.70;88.20
21622;DHT22;10973;46.706;12.340;2022-07-18T18:00:19;24.70;88.40
21622;DHT22;10973;46.706;12.340;2022-07-18T18:02:49;24.70;89.10
21622;DHT22;10973;46.706;12.340;2022-07-18T18:05:16;24.60;90.30
21622;DHT22;10973;46.706;12.340;2022-07-18T18:07:44;24.60;90.00
21622;DHT22;10973;46.706;12.340;2022-07-18T18:10:12;24.50;90.00
21622;DHT22;10973;46.706;12.340;2022-07-18T18:12:40;24.50;89.90
21622;DHT22;10973;46.706;12.340;2022-07-18T18:15:11;24.30;90.00
21622;DHT22;10973;46.706;12.340;2022-07-18T18:17:38;24.30;90.60
21622;DHT22;10973;46.706;12.340;2022-07-18T18:20:06;24.20;90.70
21622;DHT22;10973;46.706;12.340;2022-07-18T18:25:01;24.20;90.50
21622;DHT22;10973;46.706;12.340;2022-07-18T18:27:29;24.10;90.60
21622;DHT22;10973;46.706;12.340;2022-07-18T18:29:56;24.10;90.60
21622;DHT22;10973;46.706;12.340;2022-07-18T18:32:23;24.00;91.00
21622;DHT22;10973;46.706;12.340;2022-07-18T18:34:50;23.90;91.00
21622;DHT22;10973;46.706;12.340;2022-07-18T18:37:18;23.90;91.10
21622;DHT22;10973;46.706;12.340;2022-07-18T18:39:45;23.80;91.20
21622;DHT22;10973;46.706;12.340;2022-07-18T18:42:12;23.70;91.60
21622;DHT22;10973;46.706;12.340;2022-07-18T18:44:40;23.60;91.60
21622;DHT22;10973;46.706;12.340;2022-07-18T18:47:08;23.70;91.10
21622;DHT22;10973;46.706;12.340;2022-07-18T18:52:14;23.60;98.90
21622;DHT22;10973;46.706;12.340;2022-07-18T18:54:42;23.50;99.50
21622;DHT22;10973;46.706;12.340;2022-07-18T19:01:19;23.30;99.90
21622;DHT22;10973;46.706;12.340;2022-07-18T19:03:46;23.30;94.60
21622;DHT22;10973;46.706;12.340;2022-07-18T19:10:20;23.00;99.90
21622;DHT22;10973;46.706;12.340;2022-07-18T19:12:48;22.90;99.90
21622;DHT22;10973;46.706;12.340;2022-07-18T19:15:15;22.80;99.90
21622;DHT22;10973;46.706;12.340;2022-07-18T19:17:43;22.80;99.90
21622;DHT22;10973;46.706;12.340;2022-07-18T19:24:19;22.60;99.90
21622;DHT22;10973;46.706;12.340;2022-07-18T19:26:47;22.60;99.90
21622;DHT22;10973;46.706;12.340;2022-07-18T19:29:14;22.60;99.90
21622;DHT22;10973;46.706;12.340;2022-07-18T19:31:41;22.40;99.90
21622;DHT22;10973;46.706;12.340;2022-07-18T19:34:09;22.40;94.40
21622;DHT22;10973;46.706;12.340;2022-07-18T19:36:37;22.30;94.30
21622;DHT22;10973;46.706;12.340;2022-07-18T19:39:04;22.30;94.30
21622;DHT22;10973;46.706;12.340;2022-07-18T19:41:31;22.30;94.20
21622;DHT22;10973;46.706;12.340;2022-07-18T19:43:59;22.20;94.30
21622;DHT22;10973;46.706;12.340;2022-07-18T19:46:26;22.20;94.50
21622;DHT22;10973;46.706;12.340;2022-07-18T20:35:40;20.80;99.90
21622;DHT22;10973;46.706;12.340;2022-07-18T20:38:08;20.70;99.90
21622;DHT22;10973;46.706;12.340;2022-07-18T20:40:35;20.50;97.10
21622;DHT22;10973;46.706;12.340;2022-07-18T20:43:03;20.40;97.20
21622;DHT22;10973;46.706;12.340;2022-07-18T20:45:30;20.30;97.50
21622;DHT22;10973;46.706;12.340;2022-07-18T20:47:58;20.20;97.70
21622;DHT22;10973;46.706;12.340;2022-07-18T20:50:25;20.10;97.90
21622;DHT22;10973;46.706;12.340;2022-07-18T20:52:52;20.10;98.10
21622;DHT22;10973;46.706;12.340;2022-07-18T20:55:21;20.10;98.30
21622;DHT22;10973;46.706;12.340;2022-07-18T20:57:49;20.00;98.20
21622;DHT22;10973;46.706;12.340;2022-07-18T21:00:18;19.90;98.30
21622;DHT22;10973;46.706;12.340;2022-07-18T21:02:46;19.90;98.40
21622;DHT22;10973;46.706;12.340;2022-07-18T21:05:14;19.90;98.40
21622;DHT22;10973;46.706;12.340;2022-07-18T21:07:42;19.80;98.30
21622;DHT22;10973;46.706;12.340;2022-07-18T21:10:10;19.80;98.40
21622;DHT22;10973;46.706;12.340;2022-07-18T21:12:38;19.70;98.70
21622;DHT22;10973;46.706;12.340;2022-07-18T21:15:06;19.60;98.80
21622;DHT22;10973;46.706;12.340;2022-07-18T21:17:50;19.50;99.00
21622;DHT22;10973;46.706;12.340;2022-07-18T21:20:22;19.40;99.30